sensor_id;sensor_type;location;lat;lon;timestamp;P1;durP1;ratioP1;P2;durP2;ratioP2
17949;SDS011;9100;48.700;9.316;2024-02-14T00:00:10;7.5;;;5.1;;
17949;SDS011;9100;48.700;9.316;2024-02-14T00:01:08;7.5;;;5.1;;
17949;SDS011;9100;48.700;9.316;2024-02-14T00:02:08;7.5;;;5.1;;
17949;SDS011;9100;48.700;9.316;2024-02-14T00:03:08;7.5;;;5.1;;
17949;SDS011;9100;48.700;9.316;2024-02-14T00:03:21;8.1;;;4.9;;
17949;SDS011;9100;48.700;9.316;2024-02-14T00:04:08;8.1;;;4.9;;
17949;SDS011;9100;48.700;9.316;2024-02-14T00:05:08;8.1;;;4.9;;
17949;SDS011;9100;48.700;9.316;2024-02-14T00:06:08;8.1;;;4.9;;
17949;SDS011;9100;48.700;9.316;2024-02-14T00:07:08;8.1;;;4.9;;
17949;SDS011;9100;48.700;9.316;2024-02-14T00:08:08;8.1;;;4.9;;
17949;SDS011;9100;48.700;9.316;2024-02-14T00:08:21;7.2;;;4.8;;
17949;SDS011;9100;48.700;9.316;2024-02-14T00:09:08;7.2;;;4.8;;
17949;SDS011;9100;48.700;9.316;2024-02-14T00:10:08;7.2;;;4.8;;
17949;SDS011;9100;48.700;9.316;2024-02-14T00:11:08;7.2;;;4.8;;
17949;SDS011;9100;48.700;9.316;2024-02-14T00:12:08;7.2;;;4.8;;
17949;SDS011;9100;48.700;9.316;2024-02-14T00:13:08;7.2;;;4.8;;
17949;SDS011;9100;48.700;9.316;2024-02-14T00:13:21;4.7;;;4.2;;
17949;SDS011;9100;48.700;9.316;2024-02-14T00:14:08;4.7;;;4.2;;
17949;SDS011;9100;48.700;9.316;2024-02-14T00:15:09;4.7;;;4.2;;
17949;SDS011;9100;48.700;9.316;2024-02-14T00:16:08;4.7;;;4.2;;
17949;SDS011;9100;48.700;9.316;2024-02-14T00:17:08;4.7;;;4.2;;
17949;SDS011;9100;48.700;9.316;2024-02-14T00:18:08;4.7;;;4.2;;
17949;SDS011;9100;48.700;9.316;2024-02-14T00:18:21;6.7;;;4.3;;
17949;SDS011;9100;48.700;9.316;2024-02-14T00:19:08;6.7;;;4.3;;
17949;SDS011;9100;48.700;9.316;2024-02-14T00:20:08;6.7;;;4.3;;
17949;SDS011;9100;48.700;9.316;2024-02-14T00:21:08;6.7;;;4.3;;
17949;SDS011;9100;48.700;9.316;2024-02-14T00:22:08;6.7;;;4.3;;
17949;SDS011;9100;48.700;9.316;2024-02-14T00:23:08;6.7;;;4.3;;
17949;SDS011;9100;48.700;9.316;2024-02-14T00:23:21;16.9;;;4.8;;
17949;SDS011;9100;48.700;9.316;2024-02-14T00:24:08;16.9;;;4.8;;
17949;SDS011;9100;48.700;9.316;2024-02-14T00:25:08;16.9;;;4.8;;
17949;SDS011;9100;48.700;9.316;2024-02-14T00:26:08;16.9;;;4.8;;
17949;SDS011;9100;48.700;9.316;2024-02-14T00:27:08;16.9;;;4.8;;
17949;SDS011;9100;48.700;9.316;2024-02-14T00:28:08;16.9;;;4.8;;
17949;SDS011;9100;48.700;9.316;2024-02-14T00:28:21;7.5;;;4.4;;
17949;SDS011;9100;48.700;9.316;2024-02-14T00:29:08;7.5;;;4.4;;
17949;SDS011;9100;48.700;9.316;2024-02-14T00:30:08;7.5;;;4.4;;
17949;SDS011;9100;48.700;9.316;2024-02-14T00:31:08;7.5;;;4.4;;
17949;SDS011;9100;48.700;9.316;2024-02-14T00:32:08;7.5;;;4.4;;
17949;SDS011;9100;48.700;9.316;2024-02-14T00:33:08;7.5;;;4.4;;
17949;SDS011;9100;48.700;9.316;2024-02-14T00:33:21;9.4;;;4.3;;
17949;SDS011;9100;48.700;9.316;2024-02-14T00:34:08;9.4;;;4.3;;
17949;SDS011;9100;48.700;9.316;2024-02-14T00:35:08;9.4;;;4.3;;
17949;SDS011;9100;48.700;9.316;2024-02-14T00:36:08;9.4;;;4.3;;
17949;SDS011;9100;48.700;9.316;2024-02-14T00:37:08;9.4;;;4.3;;
17949;SDS011;9100;48.700;9.316;2024-02-14T00:38:08;9.4;;;4.3;;
17949;SDS011;9100;48.700;9.316;2024-02-14T00:38:21;4.3;;;3.2;;
17949;SDS011;9100;48.700;9.316;2024-02-14T00:39:08;4.3;;;3.2;;
17949;SDS011;9100;48.700;9.316;2024-02-14T00:40:08;4.3;;;3.2;;
17949;SDS011;9100;48.700;9.316;2024-02-14T00:41:08;4.3;;;3.2;;
17949;SDS011;9100;48.700;9.316;2024-02-14T00:42:08;4.3;;;3.2;;
17949;SDS011;9100;48.700;9.316;2024-02-14T00:43:08;4.3;;;3.2;;
17949;SDS011;9100;48.700;9.316;2024-02-14T00:43:21;4.4;;;4;;
17949;SDS011;9100;48.700;9.316;2024-02-14T00:44:08;4.4;;;4;;
17949;SDS011;9100;48.700;9.316;2024-02-14T00:45:08;4.4;;;4;;
17949;SDS011;9100;48.700;9.316;2024-02-14T00:46:08;4.4;;;4;;
17949;SDS011;9100;48.700;9.316;2024-02-14T00:47:08;4.4;;;4;;
17949;SDS011;9100;48.700;9.316;2024-02-14T00:48:08;4.4;;;4;;
17949;SDS011;9100;48.700;9.316;2024-02-14T00:48:21;4.1;;;3.8;;
17949;SDS011;9100;48.700;9.316;2024-02-14T00:49:08;4.1;;;3.8;;
17949;SDS011;9100;48.700;9.316;2024-02-14T00:50:08;4.1;;;3.8;;
17949;SDS011;9100;48.700;9.316;2024-02-14T00:51:08;4.1;;;3.8;;
17949;SDS011;9100;48.700;9.316;2024-02-14T00:52:08;4.1;;;3.8;;
17949;SDS011;9100;48.700;9.316;2024-02-14T00:53:08;4.1;;;3.8;;
17949;SDS011;9100;48.700;9.316;2024-02-14T00:53:21;4.5;;;4.1;;
17949;SDS011;9100;48.700;9.316;2024-02-14T00:54:08;4.5;;;4.1;;
17949;SDS011;9100;48.700;9.316;2024-02-14T00:55:08;4.5;;;4.1;;
17949;SDS011;9100;48.700;9.316;2024-02-14T00:56:08;4.5;;;4.1;;
17949;SDS011;9100;48.700;9.316;2024-02-14T00:57:08;4.5;;;4.1;;
17949;SDS011;9100;48.700;9.316;2024-02-14T00:58:08;4.5;;;4.1;;
17949;SDS011;9100;48.700;9.316;2024-02-14T00:58:21;6.2;;;3.8;;
17949;SDS011;9100;48.700;9.316;2024-02-14T00:59:09;6.2;;;3.8;;
17949;SDS011;9100;48.700;9.316;2024-02-14T01:00:08;6.2;;;3.8;;
17949;SDS011;9100;48.700;9.316;2024-02-14T01:01:08;6.2;;;3.8;;
17949;SDS011;9100;48.700;9.316;2024-02-14T01:02:08;6.2;;;3.8;;
17949;SDS011;9100;48.700;9.316;2024-02-14T01:03:08;6.2;;;3.8;;
17949;SDS011;9100;48.700;9.316;2024-02-14T01:03:21;5.1;;;3.7;;
17949;SDS011;9100;48.700;9.316;2024-02-14T01:04:08;5.1;;;3.7;;
17949;SDS011;9100;48.700;9.316;2024-02-14T01:05:08;5.1;;;3.7;;
17949;SDS011;9100;48.700;9.316;2024-02-14T01:06:08;5.1;;;3.7;;
17949;SDS011;9100;48.700;9.316;2024-02-14T01:07:08;5.1;;;3.7;;
17949;SDS011;9100;48.700;9.316;2024-02-14T01:08:08;5.1;;;3.7;;
17949;SDS011;9100;48.700;9.316;2024-02-14T01:08:21;4.8;;;4.3;;
17949;SDS011;9100;48.700;9.316;2024-02-14T01:09:08;4.8;;;4.3;;
17949;SDS011;9100;48.700;9.316;2024-02-14T01:10:08;4.8;;;4.3;;
17949;SDS011;9100;48.700;9.316;2024-02-14T01:11:08;4.8;;;4.3;;
17949;SDS011;9100;48.700;9.316;2024-02-14T01:12:08;4.8;;;4.3;;
17949;SDS011;9100;48.700;9.316;2024-02-14T01:13:08;4.8;;;4.3;;
17949;SDS011;9100;48.700;9.316;2024-02-14T01:13:21;6.6;;;3.8;;
17949;SDS011;9100;48.700;9.316;2024-02-14T01:14:08;6.6;;;3.8;;
17949;SDS011;9100;48.700;9.316;2024-02-14T01:15:08;6.6;;;3.8;;
17949;SDS011;9100;48.700;9.316;2024-02-14T01:16:08;6.6;;;3.8;;
17949;SDS011;9100;48.700;9.316;2024-02-14T01:17:08;6.6;;;3.8;;
17949;SDS011;9100;48.700;9.316;2024-02-14T01:18:08;6.6;;;3.8;;
17949;SDS011;9100;48.700;9.316;2024-02-14T01:18:21;6.4;;;4.3;;
17949;SDS011;9100;48.700;9.316;2024-02-14T01:19:08;6.4;;;4.3;;
17949;SDS011;9100;48.700;9.316;2024-02-14T01:20:08;6.4;;;4.3;;
17949;SDS011;9100;48.700;9.316;2024-02-14T01:21:08;6.4;;;4.3;;
17949;SDS011;9100;48.700;9.316;2024-02-14T01:22:08;6.4;;;4.3;;
17949;SDS011;9100;48.700;9.316;2024-02-14T01:23:08;6.4;;;4.3;;
17949;SDS011;9100;48.700;9.316;2024-02-14T01:23:21;5.2;;;4.1;;
17949;SDS011;9100;48.700;9.316;2024-02-14T01:24:08;5.2;;;4.1;;
17949;SDS011;9100;48.700;9.316;2024-02-14T01:25:08;5.2;;;4.1;;
17949;SDS011;9100;48.700;9.316;2024-02-14T01:26:08;5.2;;;4.1;;
17949;SDS011;9100;48.700;9.316;2024-02-14T01:27:08;5.2;;;4.1;;
17949;SDS011;9100;48.700;9.316;2024-02-14T01:28:08;5.2;;;4.1;;
17949;SDS011;9100;48.700;9.316;2024-02-14T01:28:21;5;;;4.3;;
17949;SDS011;9100;48.700;9.316;2024-02-14T01:29:08;5;;;4.3;;
17949;SDS011;9100;48.700;9.316;2024-02-14T01:30:08;5;;;4.3;;
17949;SDS011;9100;48.700;9.316;2024-02-14T01:31:08;5;;;4.3;;
17949;SDS011;9100;48.700;9.316;2024-02-14T01:32:08;5;;;4.3;;
17949;SDS011;9100;48.700;9.316;2024-02-14T01:33:08;5;;;4.3;;
17949;SDS011;9100;48.700;9.316;2024-02-14T01:33:21;5.2;;;3.8;;
17949;SDS011;9100;48.700;9.316;2024-02-14T01:34:08;5.2;;;3.8;;
17949;SDS011;9100;48.700;9.316;2024-02-14T01:35:08;5.2;;;3.8;;
17949;SDS011;9100;48.700;9.316;2024-02-14T01:36:08;5.2;;;3.8;;
17949;SDS011;9100;48.700;9.316;2024-02-14T01:37:08;5.2;;;3.8;;
17949;SDS011;9100;48.700;9.316;2024-02-14T01:38:08;5.2;;;3.8;;
17949;SDS011;9100;48.700;9.316;2024-02-14T01:38:21;5.7;;;4.3;;
17949;SDS011;9100;48.700;9.316;2024-02-14T01:39:08;5.7;;;4.3;;
17949;SDS011;9100;48.700;9.316;2024-02-14T01:40:08;5.7;;;4.3;;
17949;SDS011;9100;48.700;9.316;2024-02-14T01:41:08;5.7;;;4.3;;
17949;SDS011;9100;48.700;9.316;2024-02-14T01:42:08;5.7;;;4.3;;
17949;SDS011;9100;48.700;9.316;2024-02-14T01:43:08;5.7;;;4.3;;
17949;SDS011;9100;48.700;9.316;2024-02-14T01:43:21;7.4;;;4.4;;
17949;SDS011;9100;48.700;9.316;2024-02-14T01:44:08;7.4;;;4.4;;
17949;SDS011;9100;48.700;9.316;2024-02-14T01:45:08;7.4;;;4.4;;
17949;SDS011;9100;48.700;9.316;2024-02-14T01:46:08;7.4;;;4.4;;
17949;SDS011;9100;48.700;9.316;2024-02-14T01:47:08;7.4;;;4.4;;
17949;SDS011;9100;48.700;9.316;2024-02-14T01:48:08;7.4;;;4.4;;
17949;SDS011;9100;48.700;9.316;2024-02-14T01:48:21;5.7;;;4.4;;
17949;SDS011;9100;48.700;9.316;2024-02-14T01:49:08;5.7;;;4.4;;
17949;SDS011;9100;48.700;9.316;2024-02-14T01:50:08;5.7;;;4.4;;
17949;SDS011;9100;48.700;9.316;2024-02-14T01:51:08;5.7;;;4.4;;
17949;SDS011;9100;48.700;9.316;2024-02-14T01:52:08;5.7;;;4.4;;
17949;SDS011;9100;48.700;9.316;2024-02-14T01:53:08;5.7;;;4.4;;
17949;SDS011;9100;48.700;9.316;2024-02-14T01:53:21;5.6;;;4.2;;
17949;SDS011;9100;48.700;9.316;2024-02-14T01:54:08;5.6;;;4.2;;
17949;SDS011;9100;48.700;9.316;2024-02-14T01:55:08;5.6;;;4.2;;
17949;SDS011;9100;48.700;9.316;2024-02-14T01:56:08;5.6;;;4.2;;
17949;SDS011;9100;48.700;9.316;2024-02-14T01:57:09;5.6;;;4.2;;
17949;SDS011;9100;48.700;9.316;2024-02-14T01:58:08;5.6;;;4.2;;
17949;SDS011;9100;48.700;9.316;2024-02-14T01:58:21;3.9;;;3.4;;
17949;SDS011;9100;48.700;9.316;2024-02-14T01:59:08;3.9;;;3.4;;
17949;SDS011;9100;48.700;9.316;2024-02-14T02:00:08;3.9;;;3.4;;
17949;SDS011;9100;48.700;9.316;2024-02-14T02:01:08;3.9;;;3.4;;
17949;SDS011;9100;48.700;9.316;2024-02-14T02:02:08;3.9;;;3.4;;
17949;SDS011;9100;48.700;9.316;2024-02-14T02:03:08;3.9;;;3.4;;
17949;SDS011;9100;48.700;9.316;2024-02-14T02:03:21;5.3;;;3.9;;
17949;SDS011;9100;48.700;9.316;2024-02-14T02:04:08;5.3;;;3.9;;
17949;SDS011;9100;48.700;9.316;2024-02-14T02:05:08;5.3;;;3.9;;
17949;SDS011;9100;48.700;9.316;2024-02-14T02:06:08;5.3;;;3.9;;
17949;SDS011;9100;48.700;9.316;2024-02-14T02:07:08;5.3;;;3.9;;
17949;SDS011;9100;48.700;9.316;2024-02-14T02:08:08;5.3;;;3.9;;
17949;SDS011;9100;48.700;9.316;2024-02-14T02:08:21;6.1;;;4;;
17949;SDS011;9100;48.700;9.316;2024-02-14T02:09:08;6.1;;;4;;
17949;SDS011;9100;48.700;9.316;2024-02-14T02:10:08;6.1;;;4;;
17949;SDS011;9100;48.700;9.316;2024-02-14T02:11:08;6.1;;;4;;
17949;SDS011;9100;48.700;9.316;2024-02-14T02:12:08;6.1;;;4;;
17949;SDS011;9100;48.700;9.316;2024-02-14T02:13:08;6.1;;;4;;
17949;SDS011;9100;48.700;9.316;2024-02-14T02:13:21;5.3;;;3.7;;
17949;SDS011;9100;48.700;9.316;2024-02-14T02:14:08;5.3;;;3.7;;
17949;SDS011;9100;48.700;9.316;2024-02-14T02:15:08;5.3;;;3.7;;
17949;SDS011;9100;48.700;9.316;2024-02-14T02:16:08;5.3;;;3.7;;
17949;SDS011;9100;48.700;9.316;2024-02-14T02:17:08;5.3;;;3.7;;
17949;SDS011;9100;48.700;9.316;2024-02-14T02:18:08;5.3;;;3.7;;
17949;SDS011;9100;48.700;9.316;2024-02-14T02:18:21;4.9;;;4.2;;
17949;SDS011;9100;48.700;9.316;2024-02-14T02:19:08;4.9;;;4.2;;
17949;SDS011;9100;48.700;9.316;2024-02-14T02:20:09;4.9;;;4.2;;
17949;SDS011;9100;48.700;9.316;2024-02-14T02:21:08;4.9;;;4.2;;
17949;SDS011;9100;48.700;9.316;2024-02-14T02:22:09;4.9;;;4.2;;
17949;SDS011;9100;48.700;9.316;2024-02-14T02:23:09;4.9;;;4.2;;
17949;SDS011;9100;48.700;9.316;2024-02-14T02:23:21;4.2;;;3.8;;
17949;SDS011;9100;48.700;9.316;2024-02-14T02:24:08;4.2;;;3.8;;
17949;SDS011;9100;48.700;9.316;2024-02-14T02:25:08;4.2;;;3.8;;
17949;SDS011;9100;48.700;9.316;2024-02-14T02:26:08;4.2;;;3.8;;
17949;SDS011;9100;48.700;9.316;2024-02-14T02:27:08;4.2;;;3.8;;
17949;SDS011;9100;48.700;9.316;2024-02-14T02:28:08;4.2;;;3.8;;
17949;SDS011;9100;48.700;9.316;2024-02-14T02:28:21;4.7;;;4.1;;
17949;SDS011;9100;48.700;9.316;2024-02-14T02:29:08;4.7;;;4.1;;
17949;SDS011;9100;48.700;9.316;2024-02-14T02:30:08;4.7;;;4.1;;
17949;SDS011;9100;48.700;9.316;2024-02-14T02:31:08;4.7;;;4.1;;
17949;SDS011;9100;48.700;9.316;2024-02-14T02:32:08;4.7;;;4.1;;
17949;SDS011;9100;48.700;9.316;2024-02-14T02:33:08;4.7;;;4.1;;
17949;SDS011;9100;48.700;9.316;2024-02-14T02:33:21;7.3;;;3.9;;
17949;SDS011;9100;48.700;9.316;2024-02-14T02:34:09;7.3;;;3.9;;
17949;SDS011;9100;48.700;9.316;2024-02-14T02:35:08;7.3;;;3.9;;
17949;SDS011;9100;48.700;9.316;2024-02-14T02:36:08;7.3;;;3.9;;
17949;SDS011;9100;48.700;9.316;2024-02-14T02:37:08;7.3;;;3.9;;
17949;SDS011;9100;48.700;9.316;2024-02-14T02:38:08;7.3;;;3.9;;
17949;SDS011;9100;48.700;9.316;2024-02-14T02:38:21;5.2;;;3.8;;
17949;SDS011;9100;48.700;9.316;2024-02-14T02:39:08;5.2;;;3.8;;
17949;SDS011;9100;48.700;9.316;2024-02-14T02:40:08;5.2;;;3.8;;
17949;SDS011;9100;48.700;9.316;2024-02-14T02:41:08;5.2;;;3.8;;
17949;SDS011;9100;48.700;9.316;2024-02-14T02:42:08;5.2;;;3.8;;
17949;SDS011;9100;48.700;9.316;2024-02-14T02:43:08;5.2;;;3.8;;
17949;SDS011;9100;48.700;9.316;2024-02-14T02:43:21;4.7;;;4;;
17949;SDS011;9100;48.700;9.316;2024-02-14T02:44:08;4.7;;;4;;
17949;SDS011;9100;48.700;9.316;2024-02-14T02:45:08;4.7;;;4;;
17949;SDS011;9100;48.700;9.316;2024-02-14T02:46:08;4.7;;;4;;
17949;SDS011;9100;48.700;9.316;2024-02-14T02:47:08;4.7;;;4;;
17949;SDS011;9100;48.700;9.316;2024-02-14T02:48:08;4.7;;;4;;
17949;SDS011;9100;48.700;9.316;2024-02-14T02:48:21;6.5;;;3.9;;
17949;SDS011;9100;48.700;9.316;2024-02-14T02:49:08;6.5;;;3.9;;
17949;SDS011;9100;48.700;9.316;2024-02-14T02:50:08;6.5;;;3.9;;
17949;SDS011;9100;48.700;9.316;2024-02-14T02:51:08;6.5;;;3.9;;
17949;SDS011;9100;48.700;9.316;2024-02-14T02:52:08;6.5;;;3.9;;
17949;SDS011;9100;48.700;9.316;2024-02-14T02:53:08;6.5;;;3.9;;
17949;SDS011;9100;48.700;9.316;2024-02-14T02:53:21;5.7;;;4.2;;
17949;SDS011;9100;48.700;9.316;2024-02-14T02:54:08;5.7;;;4.2;;
17949;SDS011;9100;48.700;9.316;2024-02-14T02:55:08;5.7;;;4.2;;
17949;SDS011;9100;48.700;9.316;2024-02-14T02:56:08;5.7;;;4.2;;
17949;SDS011;9100;48.700;9.316;2024-02-14T02:57:08;5.7;;;4.2;;
17949;SDS011;9100;48.700;9.316;2024-02-14T02:58:08;5.7;;;4.2;;
17949;SDS011;9100;48.700;9.316;2024-02-14T02:58:21;4.8;;;3.3;;
17949;SDS011;9100;48.700;9.316;2024-02-14T02:59:08;4.8;;;3.3;;
17949;SDS011;9100;48.700;9.316;2024-02-14T03:00:08;4.8;;;3.3;;
17949;SDS011;9100;48.700;9.316;2024-02-14T03:01:08;4.8;;;3.3;;
17949;SDS011;9100;48.700;9.316;2024-02-14T03:02:08;4.8;;;3.3;;
17949;SDS011;9100;48.700;9.316;2024-02-14T03:03:08;4.8;;;3.3;;
17949;SDS011;9100;48.700;9.316;2024-02-14T03:03:21;6.8;;;4.4;;
17949;SDS011;9100;48.700;9.316;2024-02-14T03:04:08;6.8;;;4.4;;
17949;SDS011;9100;48.700;9.316;2024-02-14T03:05:08;6.8;;;4.4;;
17949;SDS011;9100;48.700;9.316;2024-02-14T03:06:08;6.8;;;4.4;;
17949;SDS011;9100;48.700;9.316;2024-02-14T03:07:08;6.8;;;4.4;;
17949;SDS011;9100;48.700;9.316;2024-02-14T03:08:08;6.8;;;4.4;;
17949;SDS011;9100;48.700;9.316;2024-02-14T03:08:21;8.6;;;4.1;;
17949;SDS011;9100;48.700;9.316;2024-02-14T03:09:08;8.6;;;4.1;;
17949;SDS011;9100;48.700;9.316;2024-02-14T03:10:08;8.6;;;4.1;;
17949;SDS011;9100;48.700;9.316;2024-02-14T03:11:08;8.6;;;4.1;;
17949;SDS011;9100;48.700;9.316;2024-02-14T03:12:09;8.6;;;4.1;;
17949;SDS011;9100;48.700;9.316;2024-02-14T03:13:08;8.6;;;4.1;;
17949;SDS011;9100;48.700;9.316;2024-02-14T03:13:21;3;;;2.8;;
17949;SDS011;9100;48.700;9.316;2024-02-14T03:14:08;3;;;2.8;;
17949;SDS011;9100;48.700;9.316;2024-02-14T03:15:08;3;;;2.8;;
17949;SDS011;9100;48.700;9.316;2024-02-14T03:16:08;3;;;2.8;;
17949;SDS011;9100;48.700;9.316;2024-02-14T03:17:08;3;;;2.8;;
17949;SDS011;9100;48.700;9.316;2024-02-14T03:18:08;3;;;2.8;;
17949;SDS011;9100;48.700;9.316;2024-02-14T03:18:21;5.5;;;3.2;;
17949;SDS011;9100;48.700;9.316;2024-02-14T03:19:08;5.5;;;3.2;;
17949;SDS011;9100;48.700;9.316;2024-02-14T03:20:08;5.5;;;3.2;;
17949;SDS011;9100;48.700;9.316;2024-02-14T03:21:08;5.5;;;3.2;;
17949;SDS011;9100;48.700;9.316;2024-02-14T03:22:08;5.5;;;3.2;;
17949;SDS011;9100;48.700;9.316;2024-02-14T03:23:08;5.5;;;3.2;;
17949;SDS011;9100;48.700;9.316;2024-02-14T03:23:21;5.3;;;4.1;;
17949;SDS011;9100;48.700;9.316;2024-02-14T03:24:08;5.3;;;4.1;;
17949;SDS011;9100;48.700;9.316;2024-02-14T03:25:08;5.3;;;4.1;;
17949;SDS011;9100;48.700;9.316;2024-02-14T03:26:08;5.3;;;4.1;;
17949;SDS011;9100;48.700;9.316;2024-02-14T03:27:08;5.3;;;4.1;;
17949;SDS011;9100;48.700;9.316;2024-02-14T03:28:08;5.3;;;4.1;;
17949;SDS011;9100;48.700;9.316;2024-02-14T03:28:21;5.5;;;3.6;;
17949;SDS011;9100;48.700;9.316;2024-02-14T03:29:08;5.5;;;3.6;;
17949;SDS011;9100;48.700;9.316;2024-02-14T03:30:08;5.5;;;3.6;;
17949;SDS011;9100;48.700;9.316;2024-02-14T03:31:08;5.5;;;3.6;;
17949;SDS011;9100;48.700;9.316;2024-02-14T03:32:08;5.5;;;3.6;;
17949;SDS011;9100;48.700;9.316;2024-02-14T03:33:08;5.5;;;3.6;;
17949;SDS011;9100;48.700;9.316;2024-02-14T03:33:21;4.9;;;4.5;;
17949;SDS011;9100;48.700;9.316;2024-02-14T03:34:08;4.9;;;4.5;;
17949;SDS011;9100;48.700;9.316;2024-02-14T03:35:08;4.9;;;4.5;;
17949;SDS011;9100;48.700;9.316;2024-02-14T03:36:08;4.9;;;4.5;;
17949;SDS011;9100;48.700;9.316;2024-02-14T03:37:08;4.9;;;4.5;;
17949;SDS011;9100;48.700;9.316;2024-02-14T03:38:08;4.9;;;4.5;;
17949;SDS011;9100;48.700;9.316;2024-02-14T03:38:24;4.9;;;4.5;;
17949;SDS011;9100;48.700;9.316;2024-02-14T03:39:08;4.9;;;4.5;;
17949;SDS011;9100;48.700;9.316;2024-02-14T03:40:08;4.9;;;4.5;;
17949;SDS011;9100;48.700;9.316;2024-02-14T03:41:08;4.9;;;4.5;;
17949;SDS011;9100;48.700;9.316;2024-02-14T03:42:08;4.9;;;4.5;;
17949;SDS011;9100;48.700;9.316;2024-02-14T03:43:08;4.9;;;4.5;;
17949;SDS011;9100;48.700;9.316;2024-02-14T03:43:21;5.5;;;4.9;;
17949;SDS011;9100;48.700;9.316;2024-02-14T03:44:08;5.5;;;4.9;;
17949;SDS011;9100;48.700;9.316;2024-02-14T03:45:08;5.5;;;4.9;;
17949;SDS011;9100;48.700;9.316;2024-02-14T03:46:08;5.5;;;4.9;;
17949;SDS011;9100;48.700;9.316;2024-02-14T03:47:08;5.5;;;4.9;;
17949;SDS011;9100;48.700;9.316;2024-02-14T03:48:08;5.5;;;4.9;;
17949;SDS011;9100;48.700;9.316;2024-02-14T03:48:21;6.7;;;4.5;;
17949;SDS011;9100;48.700;9.316;2024-02-14T03:49:08;6.7;;;4.5;;
17949;SDS011;9100;48.700;9.316;2024-02-14T03:50:08;6.7;;;4.5;;
17949;SDS011;9100;48.700;9.316;2024-02-14T03:51:08;6.7;;;4.5;;
17949;SDS011;9100;48.700;9.316;2024-02-14T03:52:08;6.7;;;4.5;;
17949;SDS011;9100;48.700;9.316;2024-02-14T03:53:08;6.7;;;4.5;;
17949;SDS011;9100;48.700;9.316;2024-02-14T03:53:21;15.9;;;5.2;;
17949;SDS011;9100;48.700;9.316;2024-02-14T03:54:08;15.9;;;5.2;;
17949;SDS011;9100;48.700;9.316;2024-02-14T03:55:08;15.9;;;5.2;;
17949;SDS011;9100;48.700;9.316;2024-02-14T03:56:08;15.9;;;5.2;;
17949;SDS011;9100;48.700;9.316;2024-02-14T03:57:08;15.9;;;5.2;;
17949;SDS011;9100;48.700;9.316;2024-02-14T03:58:09;15.9;;;5.2;;
17949;SDS011;9100;48.700;9.316;2024-02-14T03:58:21;5.9;;;4.7;;
17949;SDS011;9100;48.700;9.316;2024-02-14T03:59:09;5.9;;;4.7;;
17949;SDS011;9100;48.700;9.316;2024-02-14T04:00:08;5.9;;;4.7;;
17949;SDS011;9100;48.700;9.316;2024-02-14T04:01:08;5.9;;;4.7;;
17949;SDS011;9100;48.700;9.316;2024-02-14T04:02:08;5.9;;;4.7;;
17949;SDS011;9100;48.700;9.316;2024-02-14T04:03:11;5.9;;;4.7;;
17949;SDS011;9100;48.700;9.316;2024-02-14T04:03:21;5.7;;;3.7;;
17949;SDS011;9100;48.700;9.316;2024-02-14T04:04:08;5.7;;;3.7;;
17949;SDS011;9100;48.700;9.316;2024-02-14T04:05:08;5.7;;;3.7;;
17949;SDS011;9100;48.700;9.316;2024-02-14T04:06:08;5.7;;;3.7;;
17949;SDS011;9100;48.700;9.316;2024-02-14T04:07:08;5.7;;;3.7;;
17949;SDS011;9100;48.700;9.316;2024-02-14T04:08:08;5.7;;;3.7;;
17949;SDS011;9100;48.700;9.316;2024-02-14T04:08:21;7.2;;;4.5;;
17949;SDS011;9100;48.700;9.316;2024-02-14T04:09:08;7.2;;;4.5;;
17949;SDS011;9100;48.700;9.316;2024-02-14T04:11:08;7.2;;;4.5;;
17949;SDS011;9100;48.700;9.316;2024-02-14T04:12:08;7.2;;;4.5;;
17949;SDS011;9100;48.700;9.316;2024-02-14T04:13:08;7.2;;;4.5;;
17949;SDS011;9100;48.700;9.316;2024-02-14T04:13:21;6.8;;;4.9;;
17949;SDS011;9100;48.700;9.316;2024-02-14T04:14:08;6.8;;;4.9;;
17949;SDS011;9100;48.700;9.316;2024-02-14T04:15:08;6.8;;;4.9;;
17949;SDS011;9100;48.700;9.316;2024-02-14T04:16:08;6.8;;;4.9;;
17949;SDS011;9100;48.700;9.316;2024-02-14T04:17:08;6.8;;;4.9;;
17949;SDS011;9100;48.700;9.316;2024-02-14T04:18:08;6.8;;;4.9;;
17949;SDS011;9100;48.700;9.316;2024-02-14T04:18:21;5.8;;;4.7;;
17949;SDS011;9100;48.700;9.316;2024-02-14T04:19:08;5.8;;;4.7;;
17949;SDS011;9100;48.700;9.316;2024-02-14T04:20:08;5.8;;;4.7;;
17949;SDS011;9100;48.700;9.316;2024-02-14T04:21:08;5.8;;;4.7;;
17949;SDS011;9100;48.700;9.316;2024-02-14T04:22:08;5.8;;;4.7;;
17949;SDS011;9100;48.700;9.316;2024-02-14T04:23:08;5.8;;;4.7;;
17949;SDS011;9100;48.700;9.316;2024-02-14T04:23:21;7.5;;;4.6;;
17949;SDS011;9100;48.700;9.316;2024-02-14T04:24:08;7.5;;;4.6;;
17949;SDS011;9100;48.700;9.316;2024-02-14T04:25:08;7.5;;;4.6;;
17949;SDS011;9100;48.700;9.316;2024-02-14T04:26:08;7.5;;;4.6;;
17949;SDS011;9100;48.700;9.316;2024-02-14T04:27:08;7.5;;;4.6;;
17949;SDS011;9100;48.700;9.316;2024-02-14T04:28:08;7.5;;;4.6;;
17949;SDS011;9100;48.700;9.316;2024-02-14T04:28:21;6;;;4.3;;
17949;SDS011;9100;48.700;9.316;2024-02-14T04:29:08;6;;;4.3;;
17949;SDS011;9100;48.700;9.316;2024-02-14T04:30:08;6;;;4.3;;
17949;SDS011;9100;48.700;9.316;2024-02-14T04:31:08;6;;;4.3;;
17949;SDS011;9100;48.700;9.316;2024-02-14T04:32:08;6;;;4.3;;
17949;SDS011;9100;48.700;9.316;2024-02-14T04:33:08;6;;;4.3;;
17949;SDS011;9100;48.700;9.316;2024-02-14T04:33:21;4.8;;;4.2;;
17949;SDS011;9100;48.700;9.316;2024-02-14T04:34:08;4.8;;;4.2;;
17949;SDS011;9100;48.700;9.316;2024-02-14T04:35:08;4.8;;;4.2;;
17949;SDS011;9100;48.700;9.316;2024-02-14T04:36:08;4.8;;;4.2;;
17949;SDS011;9100;48.700;9.316;2024-02-14T04:37:08;4.8;;;4.2;;
17949;SDS011;9100;48.700;9.316;2024-02-14T04:38:08;4.8;;;4.2;;
17949;SDS011;9100;48.700;9.316;2024-02-14T04:38:21;5.6;;;4.1;;
17949;SDS011;9100;48.700;9.316;2024-02-14T04:39:08;5.6;;;4.1;;
17949;SDS011;9100;48.700;9.316;2024-02-14T04:40:08;5.6;;;4.1;;
17949;SDS011;9100;48.700;9.316;2024-02-14T04:41:08;5.6;;;4.1;;
17949;SDS011;9100;48.700;9.316;2024-02-14T04:42:08;5.6;;;4.1;;
17949;SDS011;9100;48.700;9.316;2024-02-14T04:43:08;5.6;;;4.1;;
17949;SDS011;9100;48.700;9.316;2024-02-14T04:43:21;4.1;;;3.6;;
17949;SDS011;9100;48.700;9.316;2024-02-14T04:44:08;4.1;;;3.6;;
17949;SDS011;9100;48.700;9.316;2024-02-14T04:45:08;4.1;;;3.6;;
17949;SDS011;9100;48.700;9.316;2024-02-14T04:46:08;4.1;;;3.6;;
17949;SDS011;9100;48.700;9.316;2024-02-14T04:47:08;4.1;;;3.6;;
17949;SDS011;9100;48.700;9.316;2024-02-14T04:48:08;4.1;;;3.6;;
17949;SDS011;9100;48.700;9.316;2024-02-14T04:48:21;7.6;;;4.8;;
17949;SDS011;9100;48.700;9.316;2024-02-14T04:49:08;7.6;;;4.8;;
17949;SDS011;9100;48.700;9.316;2024-02-14T04:50:08;7.6;;;4.8;;
17949;SDS011;9100;48.700;9.316;2024-02-14T04:51:08;7.6;;;4.8;;
17949;SDS011;9100;48.700;9.316;2024-02-14T04:52:08;7.6;;;4.8;;
17949;SDS011;9100;48.700;9.316;2024-02-14T04:53:08;7.6;;;4.8;;
17949;SDS011;9100;48.700;9.316;2024-02-14T04:53:21;5.4;;;4.3;;
17949;SDS011;9100;48.700;9.316;2024-02-14T04:54:08;5.4;;;4.3;;
17949;SDS011;9100;48.700;9.316;2024-02-14T04:55:08;5.4;;;4.3;;
17949;SDS011;9100;48.700;9.316;2024-02-14T04:56:08;5.4;;;4.3;;
17949;SDS011;9100;48.700;9.316;2024-02-14T04:57:08;5.4;;;4.3;;
17949;SDS011;9100;48.700;9.316;2024-02-14T04:58:08;5.4;;;4.3;;
17949;SDS011;9100;48.700;9.316;2024-02-14T04:58:21;5.1;;;4.6;;
17949;SDS011;9100;48.700;9.316;2024-02-14T04:59:08;5.1;;;4.6;;
17949;SDS011;9100;48.700;9.316;2024-02-14T05:00:09;5.1;;;4.6;;
17949;SDS011;9100;48.700;9.316;2024-02-14T05:01:08;5.1;;;4.6;;
17949;SDS011;9100;48.700;9.316;2024-02-14T05:02:08;5.1;;;4.6;;
17949;SDS011;9100;48.700;9.316;2024-02-14T05:03:08;5.1;;;4.6;;
17949;SDS011;9100;48.700;9.316;2024-02-14T05:03:21;4.1;;;3.8;;
17949;SDS011;9100;48.700;9.316;2024-02-14T05:04:08;4.1;;;3.8;;
17949;SDS011;9100;48.700;9.316;2024-02-14T05:05:08;4.1;;;3.8;;
17949;SDS011;9100;48.700;9.316;2024-02-14T05:06:08;4.1;;;3.8;;
17949;SDS011;9100;48.700;9.316;2024-02-14T05:07:08;4.1;;;3.8;;
17949;SDS011;9100;48.700;9.316;2024-02-14T05:08:08;4.1;;;3.8;;
17949;SDS011;9100;48.700;9.316;2024-02-14T05:08:21;6.4;;;4.6;;
17949;SDS011;9100;48.700;9.316;2024-02-14T05:09:08;6.4;;;4.6;;
17949;SDS011;9100;48.700;9.316;2024-02-14T05:10:08;6.4;;;4.6;;
17949;SDS011;9100;48.700;9.316;2024-02-14T05:11:08;6.4;;;4.6;;
17949;SDS011;9100;48.700;9.316;2024-02-14T05:12:08;6.4;;;4.6;;
17949;SDS011;9100;48.700;9.316;2024-02-14T05:13:08;6.4;;;4.6;;
17949;SDS011;9100;48.700;9.316;2024-02-14T05:13:21;6.1;;;4.3;;
17949;SDS011;9100;48.700;9.316;2024-02-14T05:14:08;6.1;;;4.3;;
17949;SDS011;9100;48.700;9.316;2024-02-14T05:15:08;6.1;;;4.3;;
17949;SDS011;9100;48.700;9.316;2024-02-14T05:16:08;6.1;;;4.3;;
17949;SDS011;9100;48.700;9.316;2024-02-14T05:17:08;6.1;;;4.3;;